sensor_id;sensor_type;location;lat;lon;timestamp;pressure;altitude;pressure_sealevel;temperature;humidity
17855;BME280;9053;53.358;6.382;2023-04-07T00:00:21;101384.66;;;9.23;100.00
17855;BME280;9053;53.358;6.382;2023-04-07T00:02:58;101386.44;;;9.24;100.00
17855;BME280;9053;53.358;6.382;2023-04-07T00:05:35;101384.00;;;9.27;100.00
17855;BME280;9053;53.358;6.382;2023-04-07T00:08:05;101396.28;;;9.28;100.00
17855;BME280;9053;53.358;6.382;2023-04-07T00:10:36;101390.94;;;9.27;100.00
17855;BME280;9053;53.358;6.382;2023-04-07T00:13:06;101384.94;;;9.29;100.00
17855;BME280;9053;53.358;6.382;2023-04-07T00:15:36;101379.78;;;9.31;100.00
17855;BME280;9053;53.358;6.382;2023-04-07T00:18:05;101384.03;;;9.29;100.00
17855;BME280;9053;53.358;6.382;2023-04-07T00:20:38;101386.66;;;9.29;100.00
17855;BME280;9053;53.358;6.382;2023-04-07T00:23:08;101375.19;;;9.27;100.00
17855;BME280;9053;53.358;6.382;2023-04-07T00:25:38;101384.94;;;9.29;100.00
17855;BME280;9053;53.358;6.382;2023-04-07T00:28:08;101391.16;;;9.31;100.00
17855;BME280;9053;53.358;6.382;2023-04-07T00:30:38;101389.44;;;9.32;100.00
17855;BME280;9053;53.358;6.382;2023-04-07T00:33:08;101393.03;;;9.34;100.00
17855;BME280;9053;53.358;6.382;2023-04-07T00:35:40;101388.69;;;9.35;100.00
17855;BME280;9053;53.358;6.382;2023-04-07T00:38:10;101387.78;;;9.34;100.00
17855;BME280;9053;53.358;6.382;2023-04-07T00:40:40;101391.25;;;9.33;100.00
17855;BME280;9053;53.358;6.382;2023-04-07T00:43:10;101384.34;;;9.35;100.00
17855;BME280;9053;53.358;6.382;2023-04-07T00:45:40;101392.28;;;9.37;100.00
17855;BME280;9053;53.358;6.382;2023-04-07T00:48:10;101395.00;;;9.38;100.00
17855;BME280;9053;53.358;6.382;2023-04-07T00:50:44;101397.66;;;9.40;100.00
17855;BME280;9053;53.358;6.382;2023-04-07T00:53:17;101382.84;;;9.40;100.00
17855;BME280;9053;53.358;6.382;2023-04-07T00:55:47;101393.25;;;9.39;100.00
17855;BME280;9053;53.358;6.382;2023-04-07T00:58:17;101385.38;;;9.39;100.00
17855;BME280;9053;53.358;6.382;2023-04-07T01:00:49;101385.38;;;9.39;100.00
17855;BME280;9053;53.358;6.382;2023-04-07T01:03:28;101391.53;;;9.39;100.00
17855;BME280;9053;53.358;6.382;2023-04-07T01:06:05;101394.16;;;9.39;100.00
17855;BME280;9053;53.358;6.382;2023-04-07T01:08:41;101384.50;;;9.38;100.00
17855;BME280;9053;53.358;6.382;2023-04-07T01:11:20;101384.50;;;9.38;100.00
17855;BME280;9053;53.358;6.382;2023-04-07T01:13:53;101387.91;;;9.37;100.00
17855;BME280;9053;53.358;6.382;2023-04-07T01:16:26;101395.00;;;9.38;100.00
17855;BME280;9053;53.358;6.382;2023-04-07T01:19:03;101387.91;;;9.37;100.00
17855;BME280;9053;53.358;6.382;2023-04-07T01:21:36;101386.13;;;9.36;100.00
17855;BME280;9053;53.358;6.382;2023-04-07T01:24:28;101392.22;;;9.35;100.00
17855;BME280;9053;53.358;6.382;2023-04-07T01:27:13;101381.56;;;9.32;100.00
17855;BME280;9053;53.358;6.382;2023-04-07T01:29:51;101381.41;;;9.29;100.00
17855;BME280;9053;53.358;6.382;2023-04-07T01:32:26;101388.31;;;9.27;100.00
17855;BME280;9053;53.358;6.382;2023-04-07T01:34:59;101377.75;;;9.25;100.00
17855;BME280;9053;53.358;6.382;2023-04-07T01:37:31;101380.38;;;9.25;100.00
17855;BME280;9053;53.358;6.382;2023-04-07T01:40:02;101389.16;;;9.26;100.00
17855;BME280;9053;53.358;6.382;2023-04-07T01:42:33;101381.38;;;9.27;100.00
17855;BME280;9053;53.358;6.382;2023-04-07T01:45:07;101384.88;;;9.28;100.00
17855;BME280;9053;53.358;6.382;2023-04-07T01:47:38;101388.31;;;9.27;100.00
17855;BME280;9053;53.358;6.382;2023-04-07T01:50:10;101391.69;;;9.24;100.00
17855;BME280;9053;53.358;6.382;2023-04-07T01:52:41;101385.50;;;9.22;100.00
17855;BME280;9053;53.358;6.382;2023-04-07T01:55:13;101381.00;;;9.20;100.00
17855;BME280;9053;53.358;6.382;2023-04-07T01:57:43;101381.91;;;9.20;100.00
17855;BME280;9053;53.358;6.382;2023-04-07T02:00:16;101380.16;;;9.21;100.00
17855;BME280;9053;53.358;6.382;2023-04-07T02:02:47;101390.66;;;9.21;100.00
17855;BME280;9053;53.358;6.382;2023-04-07T02:05:20;101374.03;;;9.20;100.00
17855;BME280;9053;53.358;6.382;2023-04-07T02:07:53;101388.69;;;9.17;100.00
17855;BME280;9053;53.358;6.382;2023-04-07T02:10:25;101380.69;;;9.14;100.00
17855;BME280;9053;53.358;6.382;2023-04-07T02:12:57;101388.66;;;9.15;100.00
17855;BME280;9053;53.358;6.382;2023-04-07T02:15:32;101384.16;;;9.13;100.00
17855;BME280;9053;53.358;6.382;2023-04-07T02:18:03;101383.22;;;9.12;100.00
17855;BME280;9053;53.358;6.382;2023-04-07T02:20:36;101372.81;;;9.14;100.00
17855;BME280;9053;53.358;6.382;2023-04-07T02:23:06;101384.28;;;9.16;100.00
17855;BME280;9053;53.358;6.382;2023-04-07T02:25:36;101378.19;;;9.17;100.00
17855;BME280;9053;53.358;6.382;2023-04-07T02:28:06;101389.53;;;9.16;100.00
17855;BME280;9053;53.358;6.382;2023-04-07T02:30:39;101391.31;;;9.17;100.00
17855;BME280;9053;53.358;6.382;2023-04-07T02:33:09;101391.31;;;9.17;100.00
17855;BME280;9053;53.358;6.382;2023-04-07T02:35:39;101389.63;;;9.17;100.00
17855;BME280;9053;53.358;6.382;2023-04-07T02:38:09;101392.31;;;9.19;100.00
17855;BME280;9053;53.358;6.382;2023-04-07T02:40:39;101392.38;;;9.20;100.00
17855;BME280;9053;53.358;6.382;2023-04-07T02:43:09;101393.28;;;9.21;100.00
17855;BME280;9053;53.358;6.382;2023-04-07T02:45:41;101395.91;;;9.21;100.00
17855;BME280;9053;53.358;6.382;2023-04-07T02:48:11;101395.06;;;9.22;100.00
17855;BME280;9053;53.358;6.382;2023-04-07T02:50:41;101393.38;;;9.22;100.00
17855;BME280;9053;53.358;6.382;2023-04-07T02:53:11;101397.69;;;9.22;100.00
17855;BME280;9053;53.358;6.382;2023-04-07T02:55:41;101394.13;;;9.20;100.00
17855;BME280;9053;53.358;6.382;2023-04-07T02:58:11;101391.31;;;9.17;100.00
17855;BME280;9053;53.358;6.382;2023-04-07T03:00:43;101393.91;;;9.15;100.00
17855;BME280;9053;53.358;6.382;2023-04-07T03:03:21;101396.44;;;9.14;100.00
17855;BME280;9053;53.358;6.382;2023-04-07T03:05:53;101399.91;;;9.13;100.00
17855;BME280;9053;53.358;6.382;2023-04-07T03:08:23;101402.53;;;9.13;100.00
17855;BME280;9053;53.358;6.382;2023-04-07T03:10:53;101401.69;;;9.14;100.00
17855;BME280;9053;53.358;6.382;2023-04-07T03:13:23;101407.78;;;9.13;100.00
17855;BME280;9053;53.358;6.382;2023-04-07T03:15:58;101409.41;;;9.10;100.00
17855;BME280;9053;53.358;6.382;2023-04-07T03:18:28;101405.81;;;9.08;100.00
17855;BME280;9053;53.358;6.382;2023-04-07T03:20:58;101408.44;;;9.08;100.00
17855;BME280;9053;53.358;6.382;2023-04-07T03:23:28;101406.69;;;9.09;100.00
17855;BME280;9053;53.358;6.382;2023-04-07T03:25:57;101406.56;;;9.06;100.00
17855;BME280;9053;53.358;6.382;2023-04-07T03:28:27;101403.03;;;9.05;100.00
17855;BME280;9053;53.358;6.382;2023-04-07T03:31:00;101404.59;;;9.02;100.00
17855;BME280;9053;53.358;6.382;2023-04-07T03:33:30;101405.28;;;8.98;100.00
17855;BME280;9053;53.358;6.382;2023-04-07T03:36:00;101401.78;;;8.97;100.00
17855;BME280;9053;53.358;6.382;2023-04-07T03:38:30;101415.56;;;8.93;100.00
17855;BME280;9053;53.358;6.382;2023-04-07T03:41:00;101410.06;;;8.88;100.00
17855;BME280;9053;53.358;6.382;2023-04-07T03:43:30;101415.25;;;8.87;100.00
17855;BME280;9053;53.358;6.382;2023-04-07T03:46:03;101418.69;;;8.86;100.00
17855;BME280;9053;53.358;6.382;2023-04-07T03:48:33;101415.16;;;8.85;100.00
17855;BME280;9053;53.358;6.382;2023-04-07T03:51:03;101423.13;;;8.87;100.00
17855;BME280;9053;53.358;6.382;2023-04-07T03:53:34;101416.16;;;8.87;100.00
17855;BME280;9053;53.358;6.382;2023-04-07T03:56:05;101427.53;;;8.88;100.00
17855;BME280;9053;53.358;6.382;2023-04-07T03:58:34;101425.75;;;8.87;100.00
17855;BME280;9053;53.358;6.382;2023-04-07T04:01:10;101421.16;;;8.83;100.00
17855;BME280;9053;53.358;6.382;2023-04-07T04:03:39;101432.31;;;8.79;100.00
17855;BME280;9053;53.358;6.382;2023-04-07T04:06:12;101434.78;;;8.76;100.00
17855;BME280;9053;53.358;6.382;2023-04-07T04:08:41;101437.16;;;8.71;100.00
17855;BME280;9053;53.358;6.382;2023-04-07T04:11:11;101442.19;;;8.66;100.00
17855;BME280;9053;53.358;6.382;2023-04-07T04:13:43;101438.50;;;8.63;100.00
17855;BME280;9053;53.358;6.382;2023-04-07T04:16:15;101442.72;;;8.59;100.00
17855;BME280;9053;53.358;6.382;2023-04-07T04:18:45;101450.59;;;8.59;100.00
17855;BME280;9053;53.358;6.382;2023-04-07T04:21:15;101447.97;;;8.59;100.00
17855;BME280;9053;53.358;6.382;2023-04-07T04:23:46;101448.69;;;8.57;100.00
17855;BME280;9053;53.358;6.382;2023-04-07T04:26:16;101451.13;;;8.54;100.00
17855;BME280;9053;53.358;6.382;2023-04-07T04:28:46;101456.38;;;8.54;100.00
17855;BME280;9053;53.358;6.382;2023-04-07T04:31:19;101448.50;;;8.54;100.00
17855;BME280;9053;53.358;6.382;2023-04-07T04:33:50;101447.72;;;8.55;100.00
17855;BME280;9053;53.358;6.382;2023-04-07T04:36:21;101459.09;;;8.55;100.00
17855;BME280;9053;53.358;6.382;2023-04-07T04:38:50;101463.59;;;8.58;100.00
17855;BME280;9053;53.358;6.382;2023-04-07T04:41:20;101457.38;;;8.56;100.00
17855;BME280;9053;53.358;6.382;2023-04-07T04:43:50;101463.59;;;8.58;100.00
17855;BME280;9053;53.358;6.382;2023-04-07T04:46:23;101465.38;;;8.59;100.00
17855;BME280;9053;53.358;6.382;2023-04-07T04:48:53;101468.09;;;8.60;100.00
17855;BME280;9053;53.358;6.382;2023-04-07T04:51:23;101465.47;;;8.60;100.00
17855;BME280;9053;53.358;6.382;2023-04-07T04:53:53;101477.75;;;8.61;100.00
17855;BME280;9053;53.358;6.382;2023-04-07T04:56:23;101474.22;;;8.61;100.00
17855;BME280;9053;53.358;6.382;2023-04-07T04:58:53;101470.81;;;8.62;100.00
17855;BME280;9053;53.358;6.382;2023-04-07T05:01:26;101471.72;;;8.62;100.00
17855;BME280;9053;53.358;6.382;2023-04-07T05:04:03;101475.13;;;8.61;100.00
17855;BME280;9053;53.358;6.382;2023-04-07T05:06:35;101479.41;;;8.59;100.00
17855;BME280;9053;53.358;6.382;2023-04-07T05:09:05;101482.03;;;8.59;100.00
17855;BME280;9053;53.358;6.382;2023-04-07T05:11:35;101490.72;;;8.58;100.00
17855;BME280;9053;53.358;6.382;2023-04-07T05:14:05;101488.91;;;8.57;100.00
17855;BME280;9053;53.358;6.382;2023-04-07T05:16:38;101491.44;;;8.56;100.00
17855;BME280;9053;53.358;6.382;2023-04-07T05:19:08;101489.66;;;8.55;100.00
17855;BME280;9053;53.358;6.382;2023-04-07T05:21:38;101500.06;;;8.53;100.00
17855;BME280;9053;53.358;6.382;2023-04-07T05:24:08;101505.31;;;8.53;100.00
17855;BME280;9053;53.358;6.382;2023-04-07T05:26:38;101509.56;;;8.51;100.00
17855;BME280;9053;53.358;6.382;2023-04-07T05:29:10;101505.94;;;8.49;100.00
17855;BME280;9053;53.358;6.382;2023-04-07T05:31:42;101510.28;;;8.49;100.00
17855;BME280;9053;53.358;6.382;2023-04-07T05:34:12;101505.88;;;8.48;100.00
17855;BME280;9053;53.358;6.382;2023-04-07T05:36:42;101521.53;;;8.46;100.00
17855;BME280;9053;53.358;6.382;2023-04-07T05:39:12;101520.63;;;8.45;100.00
17855;BME280;9053;53.358;6.382;2023-04-07T05:41:43;101524.97;;;8.45;100.00
17855;BME280;9053;53.358;6.382;2023-04-07T05:44:13;101524.09;;;8.44;100.00
17855;BME280;9053;53.358;6.382;2023-04-07T05:46:46;101529.31;;;8.44;100.00
17855;BME280;9053;53.358;6.382;2023-04-07T05:49:16;101526.75;;;8.46;100.00
17855;BME280;9053;53.358;6.382;2023-04-07T05:51:46;101528.50;;;8.45;100.00
17855;BME280;9053;53.358;6.382;2023-04-07T05:54:16;101530.22;;;8.45;100.00
17855;BME280;9053;53.358;6.382;2023-04-07T05:56:46;101532.75;;;8.43;100.00
17855;BME280;9053;53.358;6.382;2023-04-07T05:59:16;101540.69;;;8.45;100.00
17855;BME280;9053;53.358;6.382;2023-04-07T06:01:50;101543.16;;;8.42;100.00
17855;BME280;9053;53.358;6.382;2023-04-07T06:04:20;101547.47;;;8.41;100.00
17855;BME280;9053;53.358;6.382;2023-04-07T06:06:50;101542.34;;;8.43;100.00
17855;BME280;9053;53.358;6.382;2023-04-07T06:09:21;101548.63;;;8.47;100.00
17855;BME280;9053;53.358;6.382;2023-04-07T06:11:51;101552.25;;;8.49;100.00
17855;BME280;9053;53.358;6.382;2023-04-07T06:14:22;101543.56;;;8.50;100.00
17855;BME280;9053;53.358;6.382;2023-04-07T06:16:55;101550.75;;;8.54;100.00
17855;BME280;9053;53.358;6.382;2023-04-07T06:19:25;101552.59;;;8.55;100.00
17855;BME280;9053;53.358;6.382;2023-04-07T06:21:56;101563.97;;;8.55;100.00
17855;BME280;9053;53.358;6.382;2023-04-07T06:24:25;101560.34;;;8.53;100.00
17855;BME280;9053;53.358;6.382;2023-04-07T06:26:55;101558.72;;;8.55;100.00
17855;BME280;9053;53.358;6.382;2023-04-07T06:29:25;101565.75;;;8.56;100.00
17855;BME280;9053;53.358;6.382;2023-04-07T06:32:00;101563.31;;;8.59;100.00
17855;BME280;9053;53.358;6.382;2023-04-07T06:34:29;101561.75;;;8.63;100.00
17855;BME280;9053;53.358;6.382;2023-04-07T06:36:59;101562.66;;;8.63;100.00
17855;BME280;9053;53.358;6.382;2023-04-07T06:39:33;101569.63;;;8.63;100.00
17855;BME280;9053;53.358;6.382;2023-04-07T06:42:04;101573.06;;;8.62;100.00
17855;BME280;9053;53.358;6.382;2023-04-07T06:44:35;101578.38;;;8.63;100.00
17855;BME280;9053;53.358;6.382;2023-04-07T06:47:08;101571.34;;;8.62;100.00
17855;BME280;9053;53.358;6.382;2023-04-07T06:49:38;101581.84;;;8.62;100.00
17855;BME280;9053;53.358;6.382;2023-04-07T06:52:08;101581.69;;;8.59;100.00
17855;BME280;9053;53.358;6.382;2023-04-07T06:54:38;101584.34;;;8.61;100.00
17855;BME280;9053;53.358;6.382;2023-04-07T06:57:09;101587.97;;;8.63;100.00
17855;BME280;9053;53.358;6.382;2023-04-07T06:59:39;101589.69;;;8.62;100.00
17855;BME280;9053;53.358;6.382;2023-04-07T07:02:11;101592.47;;;8.65;100.00
17855;BME280;9053;53.358;6.382;2023-04-07T07:04:41;101589.28;;;8.71;100.00
17855;BME280;9053;53.358;6.382;2023-04-07T07:07:11;101596.56;;;8.77;100.00
17855;BME280;9053;53.358;6.382;2023-04-07T07:09:41;101595.06;;;8.82;100.00
17855;BME280;9053;53.358;6.382;2023-04-07T07:12:11;101608.28;;;8.83;100.00
17855;BME280;9053;53.358;6.382;2023-04-07T07:14:43;101599.69;;;8.86;100.00
17855;BME280;9053;53.358;6.382;2023-04-07T07:17:16;101605.16;;;8.91;100.00
17855;BME280;9053;53.358;6.382;2023-04-07T07:19:46;101609.69;;;8.93;100.00
17855;BME280;9053;53.358;6.382;2023-04-07T07:22:16;101607.88;;;8.92;100.00
17855;BME280;9053;53.358;6.382;2023-04-07T07:24:46;101614.94;;;8.93;100.00
17855;BME280;9053;53.358;6.382;2023-04-07T07:27:17;101622.63;;;8.90;100.00
17855;BME280;9053;53.358;6.382;2023-04-07T07:29:47;101625.13;;;8.87;100.00
17855;BME280;9053;53.358;6.382;2023-04-07T07:32:20;101632.00;;;8.85;100.00
17855;BME280;9053;53.358;6.382;2023-04-07T07:34:50;101630.16;;;8.84;100.00
17855;BME280;9053;53.358;6.382;2023-04-07T07:37:19;101625.84;;;8.84;100.00
17855;BME280;9053;53.358;6.382;2023-04-07T07:39:49;101636.50;;;8.87;100.00
17855;BME280;9053;53.358;6.382;2023-04-07T07:42:19;101634.13;;;8.92;100.00
17855;BME280;9053;53.358;6.382;2023-04-07T07:44:49;101637.81;;;8.96;100.00
17855;BME280;9053;53.358;6.382;2023-04-07T07:47:22;101640.66;;;9.00;100.00
17855;BME280;9053;53.358;6.382;2023-04-07T07:49:52;101645.09;;;9.01;100.00
17855;BME280;9053;53.358;6.382;2023-04-07T07:52:22;101643.34;;;9.02;100.00
17855;BME280;9053;53.358;6.382;2023-04-07T07:54:52;101646.16;;;9.05;100.00
17855;BME280;9053;53.358;6.382;2023-04-07T07:57:22;101647.38;;;9.12;100.00
17855;BME280;9053;53.358;6.382;2023-04-07T07:59:52;101653.75;;;9.17;100.00
17855;BME280;9053;53.358;6.382;2023-04-07T08:02:25;101640.22;;;9.25;100.00
17855;BME280;9053;53.358;6.382;2023-04-07T08:04:59;101648.56;;;9.35;100.00
17855;BME280;9053;53.358;6.382;2023-04-07T08:07:29;101660.28;;;9.41;100.00
17855;BME280;9053;53.358;6.382;2023-04-07T08:09:59;101663.97;;;9.45;100.00
17855;BME280;9053;53.358;6.382;2023-04-07T08:12:29;101664.28;;;9.51;100.00
17855;BME280;9053;53.358;6.382;2023-04-07T08:14:59;101670.59;;;9.54;100.00
17855;BME280;9053;53.358;6.382;2023-04-07T08:17:31;101674.88;;;9.52;100.00
17855;BME280;9053;53.358;6.382;2023-04-07T08:20:02;101679.16;;;9.50;100.00
17855;BME280;9053;53.358;6.382;2023-04-07T08:22:33;101686.19;;;9.51;100.00
17855;BME280;9053;53.358;6.382;2023-04-07T08:25:06;101685.31;;;9.51;100.00
17855;BME280;9053;53.358;6.382;2023-04-07T08:27:37;101683.41;;;9.48;100.00
17855;BME280;9053;53.358;6.382;2023-04-07T08:30:07;101691.31;;;9.48;100.00
17855;BME280;9053;53.358;6.382;2023-04-07T08:32:41;101693.94;;;9.48;100.00
17855;BME280;9053;53.358;6.382;2023-04-07T08:35:11;101697.13;;;9.43;100.00
17855;BME280;9053;53.358;6.382;2023-04-07T08:37:42;101707.25;;;9.35;100.00
17855;BME280;9053;53.358;6.382;2023-04-07T08:40:12;101701.81;;;9.32;100.00
17855;BME280;9053;53.358;6.382;2023-04-07T08:42:45;101696.66;;;9.34;100.00
17855;BME280;9053;53.358;6.382;2023-04-07T08:45:17;101704.63;;;9.35;100.00
17855;BME280;9053;53.358;6.382;2023-04-07T08:47:53;101705.81;;;9.42;100.00
17855;BME280;9053;53.358;6.382;2023-04-07T08:50:25;101717.56;;;9.48;100.00
17855;BME280;9053;53.358;6.382;2023-04-07T08:52:59;101718.03;;;9.58;100.00
17855;BME280;9053;53.358;6.382;2023-04-07T08:55:34;101713.25;;;9.67;100.00
17855;BME280;9053;53.358;6.382;2023-04-07T08:58:04;101714.63;;;9.77;100.00
17855;BME280;9053;53.358;6.382;2023-04-07T09:00:38;101714.78;;;9.80;100.00
17855;BME280;9053;53.358;6.382;2023-04-07T09:03:14;101727.66;;;9.75;100.00
17855;BME280;9053;53.358;6.382;2023-04-07T09:05:48;101721.47;;;9.73;100.00
17855;BME280;9053;53.358;6.382;2023-04-07T09:08:22;101719.78;;;9.75;100.00
17855;BME280;9053;53.358;6.382;2023-04-07T09:10:52;101732.41;;;9.82;100.00
17855;BME280;9053;53.358;6.382;2023-04-07T09:13:23;101727.72;;;9.93;100.00
17855;BME280;9053;53.358;6.382;2023-04-07T09:15:53;101724.94;;;10.08;100.00
17855;BME280;9053;53.358;6.382;2023-04-07T09:18:27;101731.66;;;10.19;100.00
17855;BME280;9053;53.358;6.382;2023-04-07T09:20:58;101729.25;;;10.24;100.00
17855;BME280;9053;53.358;6.382;2023-04-07T09:23:30;101731.94;;;10.25;100.00
17855;BME280;9053;53.358;6.382;2023-04-07T09:26:23;101736.66;;;10.31;100.00
17855;BME280;9053;53.358;6.382;2023-04-07T09:28:56;101735.81;;;10.32;100.00
17855;BME280;9053;53.358;6.382;2023-04-07T09:31:45;101731.31;;;10.29;100.00
17855;BME280;9053;53.358;6.382;2023-04-07T09:34:29;101733.28;;;10.33;100.00
17855;BME280;9053;53.358;6.382;2023-04-07T09:37:00;101738.53;;;10.33;100.00
17855;BME280;9053;53.358;6.382;2023-04-07T09:39:30;101737.41;;;10.28;100.00
17855;BME280;9053;53.358;6.382;2023-04-07T09:42:05;101735.53;;;10.27;100.00
17855;BME280;9053;53.358;6.382;2023-04-07T09:44:39;101734.91;;;10.31;100.00
17855;BME280;9053;53.358;6.382;2023-04-07T09:47:12;101744.75;;;10.35;100.00
17855;BME280;9053;53.358;6.382;2023-04-07T09:49:52;101739.09;;;10.46;100.00
17855;BME280;9053;53.358;6.382;2023-04-07T09:52:25;101747.53;;;10.56;100.00
17855;BME280;9053;53.358;6.382;2023-04-07T09:55:15;101751.88;;;10.74;100.00
17855;BME280;9053;53.358;6.382;2023-04-07T09:57:47;101747.97;;;10.83;100.00
17855;BME280;9053;53.358;6.382;2023-04-07T10:00:18;101744.00;;;10.93;100.00
17855;BME280;9053;53.358;6.382;2023-04-07T10:02:48;101744.53;;;11.04;100.00
17855;BME280;9053;53.358;6.382;2023-04-07T10:05:23;101752.13;;;11.17;100.00
17855;BME280;9053;53.358;6.382;2023-04-07T10:07:54;101745.28;;;11.21;100.00
17855;BME280;9053;53.358;6.382;2023-04-07T10:10:26;101755.88;;;11.22;100.00
17855;BME280;9053;53.358;6.382;2023-04-07T10:12:57;101743.75;;;11.26;100.00
17855;BME280;9053;53.358;6.382;2023-04-07T10:15:27;101744.94;;;11.33;100.00
17855;BME280;9053;53.358;6.382;2023-04-07T10:17:57;101752.97;;;11.36;100.00
17855;BME280;9053;53.358;6.382;2023-04-07T10:20:32;101743.91;;;11.29;100.00
17855;BME280;9053;53.358;6.382;2023-04-07T10:23:08;101764.75;;;11.24;100.00
17855;BME280;9053;53.358;6.382;2023-04-07T10:25:43;101759.06;;;11.15;100.00
17855;BME280;9053;53.358;6.382;2023-04-07T10:28:15;101765.97;;;11.13;100.00
17855;BME280;9053;53.358;6.382;2023-04-07T10:30:47;101762.09;;;11.05;100.00
17855;BME280;9053;53.358;6.382;2023-04-07T10:33:17;101773.59;;;11.07;100.00
17855;BME280;9053;53.358;6.382;2023-04-07T10:36:10;101773.66;;;11.09;100.00
17855;BME280;9053;53.358;6.382;2023-04-07T10:38:40;101779.16;;;11.13;100.00
17855;BME280;9053;53.358;6.382;2023-04-07T10:41:31;101776.81;;;11.19;100.00
17855;BME280;9053;53.358;6.382;2023-04-07T10:44:07;101780.34;;;11.20;100.00
17855;BME280;9053;53.358;6.382;2023-04-07T10:47:01;101784.31;;;11.30;100.00
17855;BME280;9053;53.358;6.382;2023-04-07T10:49:31;101791.50;;;11.34;100.00
17855;BME280;9053;53.358;6.382;2023-04-07T10:52:23;101781.38;;;11.43;100.00
17855;BME280;9053;53.358;6.382;2023-04-07T10:55:30;101790.63;;;11.53;100.00
17855;BME280;9053;53.358;6.382;2023-04-07T10:58:13;101775.91;;;11.58;100.00
17855;BME280;9053;53.358;6.382;2023-04-07T11:01:18;101784.28;;;11.68;100.00
17855;BME280;9053;53.358;6.382;2023-04-07T11:03:56;101786.34;;;11.76;100.00
17855;BME280;9053;53.358;6.382;2023-04-07T11:06:28;101777.13;;;11.85;100.00
17855;BME280;9053;53.358;6.382;2023-04-07T11:09:01;101796.06;;;11.96;100.00
17855;BME280;9053;53.358;6.382;2023-04-07T11:11:39;101799.81;;;12.01;100.00
17855;BME280;9053;53.358;6.382;2023-04-07T11:14:09;101790.47;;;12.09;100.00
17855;BME280;9053;53.358;6.382;2023-04-07T11:16:41;101793.47;;;12.17;100.00
17855;BME280;9053;53.358;6.382;2023-04-07T11:19:11;101794.72;;;12.27;100.00
17855;BME280;9053;53.358;6.382;2023-04-07T11:21:41;101794.16;;;12.34;99.98
17855;BME280;9053;53.358;6.382;2023-04-07T11:24:35;101801.50;;;12.41;99.69
17855;BME280;9053;53.358;6.382;2023-04-07T11:27:11;101792.16;;;12.49;99.49
17855;BME280;9053;53.358;6.382;2023-04-07T11:29:41;101792.41;;;12.55;99.16
17855;BME280;9053;53.358;6.382;2023-04-07T11:32:11;101790.91;;;12.62;98.89
17855;BME280;9053;53.358;6.382;2023-04-07T11:34:42;101800.06;;;12.70;98.59
17855;BME280;9053;53.358;6.382;2023-04-07T11:37:19;101795.09;;;12.78;98.30
17855;BME280;9053;53.358;6.382;2023-04-07T11:39:55;101797.06;;;12.84;97.94
17855;BME280;9053;53.358;6.382;2023-04-07T11:42:32;101800.88;;;12.90;97.60
17855;BME280;9053;53.358;6.382;2023-04-07T11:45:03;101801.94;;;12.95;97.28
17855;BME280;9053;53.358;6.382;2023-04-07T11:47:34;101802.16;;;13.02;96.98
17855;BME280;9053;53.358;6.382;2023-04-07T11:50:05;101804.13;;;13.07;96.75
17855;BME280;9053;53.358;6.382;2023-04-07T11:52:42;101804.81;;;13.02;96.26
17855;BME280;9053;53.358;6.382;2023-04-07T11:55:22;101811.47;;;12.92;95.70
17855;BME280;9053;53.358;6.382;2023-04-07T11:57:52;101816.44;;;12.84;95.20
17855;BME280;9053;53.358;6.382;2023-04-07T12:00:26;101808.91;;;12.72;94.49
17855;BME280;9053;53.358;6.382;2023-04-07T12:03:08;101810.53;;;12.69;93.94
17855;BME280;9053;53.358;6.382;2023-04-07T12:05:44;101821.81;;;12.65;93.56
17855;BME280;9053;53.358;6.382;2023-04-07T12:08:14;101814.75;;;12.64;93.21
17855;BME280;9053;53.358;6.382;2023-04-07T12:11:02;101809.56;;;12.67;92.89
17855;BME280;9053;53.358;6.382;2023-04-07T12:13:32;101820.44;;;12.74;92.67
17855;BME280;9053;53.358;6.382;2023-04-07T12:16:02;101817.41;;;12.86;92.48
17855;BME280;9053;53.358;6.382;2023-04-07T12:18:33;101819.56;;;12.96;92.27
17855;BME280;9053;53.358;6.382;2023-04-07T12:21:03;101825.25;;;13.07;92.22
17855;BME280;9053;53.358;6.382;2023-04-07T12:23:33;101821.31;;;13.18;92.13
17855;BME280;9053;53.358;6.382;2023-04-07T12:26:06;101821.63;;;13.26;92.04
17855;BME280;9053;53.358;6.382;2023-04-07T12:28:37;101821.06;;;13.33;91.94
17855;BME280;9053;53.358;6.382;2023-04-07T12:31:07;101827.50;;;13.41;91.65
17855;BME280;9053;53.358;6.382;2023-04-07T12:33:38;101826.91;;;13.49;91.34
17855;BME280;9053;53.358;6.382;2023-04-07T12:36:08;101832.53;;;13.58;91.06
17855;BME280;9053;53.358;6.382;2023-04-07T12:38:38;101823.16;;;13.66;90.83
17855;BME280;9053;53.358;6.382;2023-04-07T12:41:10;101827.69;;;13.70;90.42
17855;BME280;9053;53.358;6.382;2023-04-07T12:43:40;101840.97;;;13.72;90.11
17855;BME280;9053;53.358;6.382;2023-04-07T12:46:12;101825.94;;;13.71;89.67
17855;BME280;9053;53.358;6.382;2023-04-07T12:48:43;101824.31;;;13.74;89.31
17855;BME280;9053;53.358;6.382;2023-04-07T12:51:15;101827.31;;;13.83;89.00
17855;BME280;9053;53.358;6.382;2023-04-07T12:53:48;101831.94;;;13.91;88.73
17855;BME280;9053;53.358;6.382;2023-04-07T12:56:22;101827.97;;;14.02;88.44
17855;BME280;9053;53.358;6.382;2023-04-07T12:58:52;101821.16;;;14.09;88.26
17855;BME280;9053;53.358;6.382;2023-04-07T13:01:22;101826.81;;;14.19;87.98
17855;BME280;9053;53.358;6.382;2023-04-07T13:03:53;101822.69;;;14.27;87.68
17855;BME280;9053;53.358;6.382;2023-04-07T13:06:23;101818.28;;;14.28;87.41
17855;BME280;9053;53.358;6.382;2023-04-07T13:08:53;101825.59;;;14.35;86.99
17855;BME280;9053;53.358;6.382;2023-04-07T13:11:26;101832.94;;;14.44;86.46
17855;BME280;9053;53.358;6.382;2023-04-07T13:13:58;101828.94;;;14.55;86.15
17855;BME280;9053;53.358;6.382;2023-04-07T13:16:28;101827.44;;;14.63;85.81
17855;BME280;9053;53.358;6.382;2023-04-07T13:18:58;101826.78;;;14.70;85.52
17855;BME280;9053;53.358;6.382;2023-04-07T13:21:29;101833.22;;;14.79;85.19
17855;BME280;9053;53.358;6.382;2023-04-07T13:24:13;101823.75;;;14.85;84.79